Time;durP1;ratioP1;P1;durP2;ratioP2;P2;SDS_P1;SDS_P2;PMS_P1;PMS_P2;Temp;Humidity;BMP_temperature;BMP_pressure;BME280_temperature;BME280_humidity;BME280_pressure;Samples;Min_cycle;Max_cycle;Signal;HPM_P1;HPM_P2
2021/10/25 02:46:26;;;;;;;9.77;3.05;;;9.10;73.50;;;;;;5259464;24;20070;-77
2021/10/25 02:48:52;;;;;;;10.80;3.53;;;9.00;73.70;;;;;;4764267;30;20287;-77
2021/10/25 02:51:18;;;;;;;13.60;3.93;;;9.00;73.30;;;;;;4761875;30;20104;-77
2021/10/25 02:53:45;;;;;;;16.15;2.92;;;9.10;73.50;;;;;;4773458;30;20278;-77
2021/10/25 02:56:12;;;;;;;6.68;2.67;;;9.00;73.50;;;;;;4776814;29;20343;-77
2021/10/25 02:58:39;;;;;;;7.68;3.10;;;8.90;74.00;;;;;;4778046;30;20040;-77
2021/10/25 03:01:05;;;;;;;11.07;4.23;;;9.00;73.70;;;;;;4776786;29;20316;-77
2021/10/25 03:03:30;;;;;;;8.32;3.05;;;9.00;73.70;;;;;;4777838;30;20039;-77
2021/10/25 03:05:57;;;;;;;12.13;3.20;;;9.00;73.80;;;;;;4779263;29;20043;-80
2021/10/25 03:08:23;;;;;;;13.53;3.30;;;8.90;73.90;;;;;;4776381;29;20107;-77
2021/10/25 03:10:49;;;;;;;7.75;3.33;;;8.90;73.90;;;;;;4777203;30;20110;-78
2021/10/25 03:13:18;;;;;;;6.78;2.90;;;8.90;73.70;;;;;;4776683;29;20047;-78
2021/10/25 03:15:44;;;;;;;9.63;3.13;;;8.90;73.70;;;;;;4771070;30;20032;-77
2021/10/25 03:18:11;;;;;;;10.07;2.92;;;8.90;73.70;;;;;;4779575;29;20047;-77
2021/10/25 03:20:38;;;;;;;8.52;3.33;;;8.90;73.60;;;;;;4776704;29;20020;-77
2021/10/25 03:23:05;;;;;;;6.57;2.75;;;8.90;73.80;;;;;;4761738;30;20036;-77
2021/10/25 03:25:32;;;;;;;8.30;3.13;;;8.90;73.70;;;;;;4761668;30;20107;-77
2021/10/25 03:27:58;;;;;;;9.65;3.00;;;8.90;73.50;;;;;;4770630;30;20056;-78
2021/10/25 03:30:25;;;;;;;21.77;4.38;;;8.90;73.30;;;;;;4779456;29;20106;-77
2021/10/25 03:32:51;;;;;;;14.85;3.95;;;9.00;73.20;;;;;;4779563;29;20143;-78
2021/10/25 03:35:38;;;;;;;16.73;3.70;;;8.90;73.30;;;;;;4761015;30;20044;-78
2021/10/25 03:38:09;;;;;;;10.48;3.45;;;8.90;73.30;;;;;;4746096;30;20040;-78
2021/10/25 03:40:36;;;;;;;12.70;2.97;;;9.00;73.00;;;;;;4746354;30;20040;-80
2021/10/25 03:43:02;;;;;;;9.50;3.85;;;9.00;73.00;;;;;;4746102;30;20270;-78
2021/10/25 03:48:05;;;;;;;10.50;3.25;;;8.90;73.30;;;;;;4746086;30;20048;-78
2021/10/25 03:50:34;;;;;;;8.55;3.28;;;8.90;73.50;;;;;;4775687;30;20247;-78
2021/10/25 04:04:18;;;;;;;11.90;3.65;;;8.70;75.10;;;;;;4725658;30;20041;-78
2021/10/25 04:28:41;;;;;;;9.82;3.80;;;8.60;75.40;;;;;;4751145;30;20362;-78
2021/10/25 04:31:07;;;;;;;12.57;4.28;;;8.50;75.50;;;;;;4731828;30;20337;-79
2021/10/25 04:34:03;;;;;;;11.02;3.95;;;8.50;76.00;;;;;;4703352;30;20041;-78
2021/10/25 04:36:57;;;;;;;15.77;3.83;;;8.50;76.00;;;;;;4700370;30;20037;-78
2021/10/25 04:39:43;;;;;;;8.77;3.80;;;8.50;75.70;;;;;;4694122;30;20440;-78
2021/10/25 04:42:16;;;;;;;12.82;4.40;;;8.40;75.90;;;;;;4703566;30;20084;-78
2021/10/25 04:44:45;;;;;;;12.40;4.32;;;8.40;75.90;;;;;;4696564;30;20037;-78
2021/10/25 04:47:11;;;;;;;10.60;3.67;;;8.40;76.00;;;;;;4710707;30;20063;-78
2021/10/25 04:49:37;;;;;;;16.38;4.80;;;8.40;76.10;;;;;;4696846;30;20033;-78
2021/10/25 04:52:23;;;;;;;10.18;4.57;;;8.40;76.10;;;;;;4709918;30;20056;-78
2021/10/25 04:54:48;;;;;;;11.32;4.60;;;8.30;76.60;;;;;;4693952;30;20761;-78
2021/10/25 04:57:14;;;;;;;11.25;4.72;;;8.30;76.80;;;;;;4697052;30;20042;-78
2021/10/25 04:59:41;;;;;;;12.00;4.68;;;8.30;76.90;;;;;;4696457;30;20037;-78
2021/10/25 05:02:08;;;;;;;10.52;4.10;;;8.30;76.80;;;;;;4693596;30;20104;-79
2021/10/25 05:04:34;;;;;;;21.88;5.25;;;8.20;77.10;;;;;;4693467;30;20122;-78
2021/10/25 05:07:02;;;;;;;11.68;4.60;;;8.20;77.40;;;;;;4682815;30;20049;-78
2021/10/25 05:09:28;;;;;;;12.77;4.90;;;8.10;77.80;;;;;;4702408;30;20038;-78
2021/10/25 05:11:54;;;;;;;9.30;4.70;;;8.00;78.00;;;;;;4763487;30;20223;-78
2021/10/25 05:14:22;;;;;;;13.35;5.30;;;8.00;78.30;;;;;;4763811;30;20050;-78
2021/10/25 05:16:52;;;;;;;14.82;5.72;;;7.90;78.80;;;;;;4770492;29;20220;-79
2021/10/25 05:19:18;;;;;;;13.10;4.97;;;7.90;79.00;;;;;;4770948;30;20086;-79
2021/10/25 05:21:49;;;;;;;17.63;5.18;;;7.90;79.30;;;;;;4767453;29;20028;-78
2021/10/25 05:24:15;;;;;;;10.23;5.15;;;7.90;79.40;;;;;;4770441;29;20404;-79
2021/10/25 05:26:41;;;;;;;10.05;4.30;;;7.90;79.60;;;;;;4764719;30;20103;-78
2021/10/25 05:29:07;;;;;;;12.90;4.63;;;7.90;79.90;;;;;;4775425;30;20055;-78
2021/10/25 05:31:33;;;;;;;10.75;4.85;;;7.80;79.90;;;;;;4760970;30;20033;-79
2021/10/25 05:33:58;;;;;;;12.82;5.00;;;7.90;79.90;;;;;;4790553;30;20089;-79
2021/10/25 05:36:24;;;;;;;13.05;4.00;;;7.80;80.40;;;;;;4787179;29;20036;-78
2021/10/25 05:38:51;;;;;;;9.75;4.63;;;7.80;80.50;;;;;;4770390;29;20031;-78
2021/10/25 05:41:18;;;;;;;19.77;5.45;;;7.70;80.50;;;;;;4777882;29;20414;-79
2021/10/25 05:43:44;;;;;;;16.70;4.97;;;7.70;80.60;;;;;;4763442;30;20024;-79
2021/10/25 05:46:09;;;;;;;13.55;4.65;;;7.80;80.60;;;;;;4767020;30;20113;-79
2021/10/25 05:48:40;;;;;;;;;;;7.80;80.60;;;;;;4773478;30;20391;-79
2021/10/25 05:51:08;;;;;;;12.18;4.60;;;7.80;80.90;;;;;;4770490;30;19959;-79
2021/10/25 05:53:34;;;;;;;14.60;4.70;;;7.70;80.70;;;;;;4792104;29;20040;-79
2021/10/25 05:56:00;;;;;;;9.68;4.28;;;7.70;81.00;;;;;;4763451;30;20028;-79
2021/10/25 05:58:26;;;;;;;17.35;4.72;;;7.70;80.80;;;;;;4769214;30;20056;-78
2021/10/25 06:00:55;;;;;;;11.20;3.58;;;7.80;80.70;;;;;;4768085;30;20040;-79
2021/10/25 06:03:42;;;;;;;13.70;4.68;;;7.80;80.60;;;;;;4761387;30;20366;-79
2021/10/25 06:06:09;;;;;;;9.85;3.90;;;7.80;80.40;;;;;;4775867;29;20027;-79
2021/10/25 06:08:35;;;;;;;17.15;5.75;;;7.80;80.40;;;;;;4746117;30;20043;-79
2021/10/25 06:11:02;;;;;;;16.88;4.45;;;7.90;80.40;;;;;;4775848;29;20032;-78
2021/10/25 06:13:37;;;;;;;21.13;5.13;;;7.90;80.30;;;;;;4760805;30;20024;-79
2021/10/25 06:18:35;;;;;;;14.75;5.18;;;7.90;80.20;;;;;;4790421;29;20074;-79
2021/10/25 06:21:02;;;;;;;11.15;4.78;;;7.90;79.70;;;;;;4763504;30;20033;-78
2021/10/25 06:23:28;;;;;;;;;;;8.10;79.50;;;;;;4775865;29;20027;-79
2021/10/25 06:25:55;;;;;;;11.32;3.85;;;8.20;79.30;;;;;;4790091;29;19910;-78
2021/10/25 06:28:27;;;;;;;11.65;3.92;;;8.30;78.80;;;;;;4777023;30;20028;-78
2021/10/25 06:31:01;;;;;;;17.80;4.45;;;8.30;78.50;;;;;;4772653;30;20122;-78
2021/10/25 06:33:50;;;;;;;19.60;5.13;;;8.30;78.30;;;;;;4777323;30;20055;-78
2021/10/25 06:36:29;;;;;;;8.35;3.72;;;8.30;78.10;;;;;;4777587;30;20028;-78
2021/10/25 06:39:14;;;;;;;7.55;4.05;;;8.40;78.00;;;;;;4777187;30;20046;-80
2021/10/25 06:41:50;;;;;;;8.60;3.88;;;8.40;77.80;;;;;;4762466;30;20038;-78
2021/10/25 06:44:24;;;;;;;11.23;5.00;;;8.50;77.60;;;;;;4783277;30;20380;-78
2021/10/25 06:46:55;;;;;;;11.60;4.85;;;8.50;77.10;;;;;;4776949;30;20101;-78
2021/10/25 06:49:21;;;;;;;11.95;4.88;;;8.60;77.30;;;;;;4761969;30;20035;-79
2021/10/25 06:51:48;;;;;;;14.75;5.32;;;8.70;76.70;;;;;;4762095;30;20335;-79
2021/10/25 06:54:14;;;;;;;7.97;4.00;;;8.80;76.30;;;;;;4776787;30;20103;-79
2021/10/25 06:56:40;;;;;;;8.40;4.30;;;8.90;75.90;;;;;;4777135;30;20369;-79
2021/10/25 06:59:06;;;;;;;10.98;4.72;;;8.90;75.80;;;;;;4777011;30;20059;-79
2021/10/25 07:01:35;;;;;;;16.60;4.13;;;9.00;75.30;;;;;;4777060;30;20231;-79
2021/10/25 07:04:02;;;;;;;13.02;4.30;;;9.10;75.20;;;;;;4784094;30;20343;-79
2021/10/25 07:06:34;;;;;;;12.30;4.63;;;9.20;74.50;;;;;;4784533;30;20031;-79
2021/10/25 07:09:03;;;;;;;10.93;4.68;;;9.20;74.90;;;;;;4774549;30;20319;-79
2021/10/25 07:11:30;;;;;;;11.73;4.05;;;9.30;74.50;;;;;;4785095;29;20123;-79
2021/10/25 07:13:56;;;;;;;;;;;9.40;73.90;;;;;;4745616;30;20039;-79
2021/10/25 07:16:49;;;;;;;18.13;5.68;;;9.40;73.50;;;;;;4789391;29;20166;-79
2021/10/25 07:19:25;;;;;;;11.80;4.32;;;9.50;73.30;;;;;;4773829;30;20074;-79
2021/10/25 08:06:06;;;;;;;13.05;4.75;;;10.70;67.80;;;;;;4783511;30;20328;-78
2021/10/25 08:08:50;;;;;;;13.20;5.13;;;10.80;67.90;;;;;;4768662;30;20157;-79
2021/10/25 08:11:17;;;;;;;9.50;4.40;;;10.90;67.40;;;;;;4783091;30;20164;-79
2021/10/25 08:14:00;;;;;;;19.83;5.53;;;11.00;67.40;;;;;;4769150;30;20077;-79
2021/10/25 08:16:42;;;;;;;16.27;4.60;;;11.10;66.30;;;;;;4766732;30;20032;-78
2021/10/25 08:19:29;;;;;;;12.68;4.85;;;11.20;65.30;;;;;;4749655;30;20381;-79
2021/10/25 08:21:58;;;;;;;20.60;4.47;;;11.40;65.10;;;;;;4777587;29;20343;-79
2021/10/25 08:24:27;;;;;;;8.98;4.45;;;11.40;65.10;;;;;;4777769;30;20034;-78
2021/10/25 08:27:14;;;;;;;13.93;5.03;;;11.60;64.70;;;;;;4778194;29;20019;-78
2021/10/25 08:29:46;;;;;;;9.95;4.60;;;11.70;64.70;;;;;;4762753;30;20107;-78
2021/10/25 08:35:20;;;;;;;11.13;3.85;;;11.90;63.50;;;;;;4792235;29;20040;-79
2021/10/25 08:41:03;;;;;;;17.08;5.07;;;12.20;63.00;;;;;;4764575;30;20085;-79
2021/10/25 08:43:33;;;;;;;9.30;3.80;;;12.40;62.80;;;;;;4779544;30;20057;-78
2021/10/25 08:46:02;;;;;;;8.48;3.80;;;12.50;61.40;;;;;;4779553;30;20051;-78
2021/10/25 08:48:30;;;;;;;10.18;4.50;;;12.50;60.40;;;;;;4794501;29;20042;-78
2021/10/25 08:50:57;;;;;;;;;;;12.40;61.10;;;;;;4780265;30;20050;-79
2021/10/25 08:53:23;;;;;;;16.07;4.23;;;12.50;61.40;;;;;;4779712;30;19913;-79
2021/10/25 08:55:52;;;;;;;9.90;4.45;;;12.70;60.00;;;;;;4779743;30;20052;-78
2021/10/25 08:58:20;;;;;;;11.50;4.15;;;12.70;60.60;;;;;;4779427;30;20059;-79
2021/10/25 09:00:52;;;;;;;11.73;4.63;;;12.70;60.00;;;;;;4794261;29;20028;-79
2021/10/25 09:03:27;;;;;;;11.45;3.97;;;12.80;60.90;;;;;;4764813;30;20034;-78
2021/10/25 09:06:02;;;;;;;13.15;5.25;;;12.90;60.10;;;;;;4779190;30;20028;-79
2021/10/25 09:08:33;;;;;;;23.35;4.60;;;13.10;59.60;;;;;;4779538;30;20326;-78
2021/10/25 09:11:00;;;;;;;10.57;3.88;;;13.00;59.00;;;;;;4793699;29;20048;-79
2021/10/25 09:13:28;;;;;;;15.02;4.28;;;13.00;59.20;;;;;;4779396;30;20033;-78
2021/10/25 09:15:57;;;;;;;12.50;4.25;;;13.00;58.90;;;;;;4776020;30;20040;-79
2021/10/25 09:18:42;;;;;;;12.52;4.03;;;13.20;59.00;;;;;;4757371;30;20603;-78
2021/10/25 09:21:13;;;;;;;;;;;13.40;58.80;;;;;;4765691;29;20198;-78
2021/10/25 09:23:42;;;;;;;17.05;6.72;;;13.40;58.20;;;;;;4792414;29;19918;-78
2021/10/25 09:26:12;;;;;;;19.80;7.80;;;13.50;57.40;;;;;;4776706;29;20032;-78
2021/10/25 09:28:53;;;;;;;18.35;7.70;;;13.50;56.90;;;;;;4775256;30;20063;-79
2021/10/25 09:31:30;;;;;;;21.83;9.07;;;13.70;57.20;;;;;;4777219;29;20082;-78
2021/10/25 09:34:04;;;;;;;16.48;6.22;;;13.80;57.50;;;;;;4791731;29;20039;-79
2021/10/25 09:36:59;;;;;;;19.92;5.72;;;14.00;55.40;;;;;;4740217;30;20040;-78
2021/10/25 09:39:44;;;;;;;14.45;5.93;;;14.00;56.00;;;;;;4758139;30;20056;-78
2021/10/25 09:45:28;;;;;;;11.77;4.65;;;14.20;54.10;;;;;;4743871;30;20032;-78
2021/10/25 09:50:58;;;;;;;10.55;3.60;;;14.20;53.60;;;;;;4752210;30;20045;-78
2021/10/25 09:53:37;;;;;;;11.13;3.80;;;14.20;53.60;;;;;;4757451;30;20075;-78
2021/10/25 09:56:06;;;;;;;11.70;3.55;;;14.30;52.90;;;;;;4757873;30;20037;-78
2021/10/25 09:58:48;;;;;;;11.18;3.33;;;14.30;52.10;;;;;;4757723;30;20032;-79
2021/10/25 10:01:23;;;;;;;;;;;14.40;51.50;;;;;;4758449;30;20040;-79
2021/10/25 10:03:50;;;;;;;9.60;2.95;;;14.40;52.30;;;;;;4757474;30;19940;-78
2021/10/25 10:06:28;;;;;;;14.00;3.05;;;14.50;51.70;;;;;;4757692;30;20096;-78
2021/10/25 10:08:59;;;;;;;11.88;3.10;;;14.70;51.00;;;;;;4757256;30;20063;-78
2021/10/25 10:11:27;;;;;;;11.98;3.20;;;14.80;49.80;;;;;;4757336;30;20107;-78
2021/10/25 10:13:56;;;;;;;16.48;3.05;;;14.80;49.30;;;;;;4767121;30;20048;-78
2021/10/25 10:16:30;;;;;;;8.18;3.05;;;14.80;50.00;;;;;;4773387;29;20048;-79
2021/10/25 10:19:01;;;;;;;9.35;3.05;;;14.90;49.90;;;;;;4758518;30;20281;-78
2021/10/25 10:22:01;;;;;;;8.77;2.97;;;14.90;49.60;;;;;;4777921;30;20114;-77
2021/10/25 10:24:34;;;;;;;16.83;3.33;;;14.90;49.70;;;;;;4780175;30;20284;-79
2021/10/25 10:27:06;;;;;;;6.57;3.55;;;15.00;49.10;;;;;;4748808;30;20048;-77
2021/10/25 10:29:39;;;;;;;6.18;2.63;;;15.00;48.60;;;;;;4763630;30;20031;-79
2021/10/25 10:32:15;;;;;;;9.63;3.10;;;15.00;48.30;;;;;;4777559;30;20051;-80
2021/10/25 10:35:19;;;;;;;13.43;3.05;;;14.90;48.30;;;;;;4725447;30;20049;-77
2021/10/25 10:38:08;;;;;;;9.93;2.03;;;14.90;48.20;;;;;;4713534;30;20045;-77
2021/10/25 10:41:03;;;;;;;16.77;3.17;;;14.90;48.60;;;;;;4711264;30;20048;-78
2021/10/25 10:44:04;;;;;;;14.30;2.55;;;14.90;48.30;;;;;;4721633;30;20045;-78
2021/10/25 10:47:13;;;;;;;10.45;3.00;;;14.90;48.40;;;;;;4710789;30;20090;-78
2021/10/25 10:49:45;;;;;;;12.60;2.88;;;14.90;48.80;;;;;;4657549;30;20047;-78
2021/10/25 10:52:42;;;;;;;18.30;2.95;;;15.00;48.10;;;;;;4648407;30;20052;-78
2021/10/25 10:55:22;;;;;;;12.82;2.97;;;15.00;48.50;;;;;;4656946;30;20050;-80
2021/10/25 11:00:38;;;;;;;9.98;2.78;;;15.00;48.70;;;;;;4622429;31;20106;-79
2021/10/25 11:03:21;;;;;;;9.43;2.80;;;15.20;48.60;;;;;;4596101;31;20048;-78
2021/10/25 11:05:59;;;;;;;9.25;3.15;;;15.10;47.60;;;;;;4623394;30;20039;-78
2021/10/25 11:08:39;;;;;;;9.00;2.30;;;15.10;47.70;;;;;;4657533;30;20050;-79
2021/10/25 11:11:06;;;;;;;10.13;3.47;;;15.00;47.50;;;;;;4656981;30;20031;-79
2021/10/25 11:13:40;;;;;;;9.10;2.63;;;15.10;48.70;;;;;;4658797;30;20272;-78
2021/10/25 11:16:12;;;;;;;7.35;3.05;;;15.20;48.80;;;;;;4662276;30;20049;-78
2021/10/25 11:18:46;;;;;;;13.48;3.25;;;15.20;48.60;;;;;;4693916;30;20048;-78
2021/10/25 11:21:19;;;;;;;9.75;3.00;;;15.20;48.90;;;;;;4689946;30;20030;-77
2021/10/25 11:23:52;;;;;;;11.60;3.28;;;15.20;48.90;;;;;;4691388;30;20038;-79
2021/10/25 11:26:29;;;;;;;9.38;2.97;;;15.10;48.50;;;;;;4754050;30;20032;-79
2021/10/25 11:29:14;;;;;;;11.68;2.50;;;15.00;49.20;;;;;;4778120;29;20040;-79
2021/10/25 11:31:41;;;;;;;5.88;2.50;;;15.10;49.40;;;;;;4775168;29;20040;-79
2021/10/25 11:34:21;;;;;;;9.07;3.00;;;15.20;48.50;;;;;;4760229;30;20047;-79
2021/10/25 11:37:10;;;;;;;13.27;2.97;;;15.20;48.90;;;;;;4775283;29;20035;-79
2021/10/25 11:39:40;;;;;;;14.00;2.88;;;15.20;48.10;;;;;;4774774;30;20332;-79
2021/10/25 11:42:08;;;;;;;7.63;3.22;;;15.20;48.80;;;;;;4760381;30;20354;-79
2021/10/25 11:44:38;;;;;;;10.32;2.67;;;15.20;48.20;;;;;;4759961;30;20036;-79
2021/10/25 11:47:04;;;;;;;13.75;4.00;;;15.20;48.60;;;;;;4789507;29;20059;-79
2021/10/25 11:49:35;;;;;;;14.27;4.70;;;15.30;49.00;;;;;;4760428;30;20220;-79
2021/10/25 11:52:01;;;;;;;10.85;4.63;;;15.30;48.20;;;;;;4759927;30;20040;-80
2021/10/25 11:54:27;;;;;;;10.40;2.28;;;15.30;48.10;;;;;;4759649;30;20039;-79
2021/10/25 11:56:54;;;;;;;10.85;3.75;;;15.30;48.50;;;;;;4759880;30;20358;-79
2021/10/25 11:59:21;;;;;;;;;;;15.20;48.00;;;;;;4760017;30;20047;-80
2021/10/25 12:01:47;;;;;;;;;;;15.20;47.70;;;;;;4760126;30;19925;-79
2021/10/25 12:04:14;;;;;;;5.25;2.25;;;15.10;47.40;;;;;;4759742;30;20126;-79
2021/10/25 12:06:40;;;;;;;8.85;2.80;;;15.10;48.00;;;;;;4763389;29;20035;-79
2021/10/25 12:09:08;;;;;;;4.47;2.72;;;15.20;47.50;;;;;;4760985;30;20055;-79
2021/10/25 12:11:51;;;;;;;10.55;2.65;;;15.20;48.20;;;;;;4760815;30;20028;-79
2021/10/25 12:14:30;;;;;;;5.40;1.95;;;15.40;48.50;;;;;;4774442;29;20235;-79
2021/10/25 12:16:56;;;;;;;11.40;2.95;;;15.50;47.90;;;;;;4762221;30;20050;-79
2021/10/25 12:19:23;;;;;;;6.68;2.40;;;15.60;47.80;;;;;;4788871;29;20040;-79
2021/10/25 12:21:49;;;;;;;14.18;2.67;;;15.60;47.10;;;;;;4774094;29;20033;-80
2021/10/25 12:24:15;;;;;;;10.55;2.90;;;15.40;48.20;;;;;;4774225;29;20081;-79
2021/10/25 12:26:43;;;;;;;14.88;1.95;;;15.40;47.40;;;;;;4777895;29;20036;-79
2021/10/25 12:29:17;;;;;;;5.93;1.90;;;15.40;48.30;;;;;;4760294;30;20056;-79
2021/10/25 12:31:44;;;;;;;5.13;2.10;;;15.40;47.90;;;;;;4789700;30;20043;-79
2021/10/25 12:34:11;;;;;;;11.77;2.70;;;15.30;47.90;;;;;;4789593;29;20043;-79
2021/10/25 12:36:40;;;;;;;7.75;2.63;;;15.30;47.80;;;;;;4777876;29;20320;-79
2021/10/25 12:39:09;;;;;;;8.48;2.75;;;15.20;48.40;;;;;;4783357;29;20371;-79
2021/10/25 12:41:45;;;;;;;6.65;3.17;;;15.30;48.30;;;;;;4757279;30;20099;-79
2021/10/25 12:44:10;;;;;;;15.52;2.67;;;15.30;48.30;;;;;;4764094;30;20036;-79
2021/10/25 12:46:36;;;;;;;9.65;2.63;;;15.30;48.50;;;;;;4774422;29;20051;-79
2021/10/25 12:49:03;;;;;;;12.85;2.38;;;15.30;48.00;;;;;;4763895;30;20109;-79
2021/10/25 12:51:38;;;;;;;9.48;2.88;;;15.20;48.20;;;;;;4763660;30;20384;-79
2021/10/25 12:54:09;;;;;;;7.25;2.30;;;15.20;47.60;;;;;;4762477;30;20251;-79
2021/10/25 12:56:34;;;;;;;5.97;2.38;;;15.20;48.10;;;;;;4762573;30;20391;-79
2021/10/25 12:59:03;;;;;;;7.30;2.60;;;15.10;48.40;;;;;;4762351;30;20040;-78
2021/10/25 13:01:29;;;;;;;12.20;2.40;;;15.10;48.30;;;;;;4760855;30;20059;-78
2021/10/25 13:03:59;;;;;;;7.40;2.50;;;15.10;48.70;;;;;;4776016;29;20080;-79
2021/10/25 13:06:29;;;;;;;4.90;2.40;;;15.10;48.60;;;;;;4762954;30;20040;-78
2021/10/25 13:09:06;;;;;;;5.97;2.60;;;15.20;48.40;;;;;;4776997;29;20355;-79
2021/10/25 13:11:32;;;;;;;16.13;2.90;;;15.20;48.20;;;;;;4792346;29;20051;-79
2021/10/25 13:13:58;;;;;;;8.38;2.28;;;15.20;48.70;;;;;;4774508;30;20250;-79
2021/10/25 13:16:29;;;;;;;8.73;2.70;;;15.30;48.60;;;;;;4771517;30;20035;-79
2021/10/25 13:18:55;;;;;;;8.10;2.40;;;15.20;47.80;;;;;;4761806;30;20044;-79
2021/10/25 13:21:22;;;;;;;7.90;2.83;;;15.00;48.20;;;;;;4774883;29;20025;-79
2021/10/25 13:23:48;;;;;;;5.95;2.42;;;15.00;48.80;;;;;;4767535;30;20040;-79
2021/10/25 13:26:14;;;;;;;9.93;3.00;;;15.00;48.80;;;;;;4761424;30;20028;-78
2021/10/25 13:28:40;;;;;;;6.20;2.40;;;15.10;48.60;;;;;;4770203;30;20118;-79
2021/10/25 13:31:07;;;;;;;16.45;2.78;;;15.00;48.70;;;;;;4762223;30;20038;-79
2021/10/25 13:33:36;;;;;;;13.25;2.13;;;15.00;48.80;;;;;;4762274;30;20090;-79
2021/10/25 13:36:04;;;;;;;14.38;3.33;;;15.00;48.80;;;;;;4762035;30;20043;-79
2021/10/25 13:38:29;;;;;;;;;;;14.90;48.90;;;;;;4762405;30;20040;-79
2021/10/25 13:40:55;;;;;;;9.98;2.80;;;14.90;49.30;;;;;;4791831;29;20083;-79
2021/10/25 13:43:21;;;;;;;12.88;3.40;;;14.80;49.70;;;;;;4762054;30;20032;-79
2021/10/25 13:45:47;;;;;;;9.98;2.53;;;14.80;49.30;;;;;;4761658;30;20115;-79
2021/10/25 13:48:14;;;;;;;5.53;2.40;;;14.80;49.60;;;;;;4770294;29;20052;-79
2021/10/25 13:50:40;;;;;;;;;;;14.80;49.60;;;;;;4775765;30;20052;-78
2021/10/25 13:53:06;;;;;;;9.52;2.25;;;14.80;49.70;;;;;;4784011;29;19979;-79
2021/10/25 13:55:32;;;;;;;13.23;2.72;;;14.80;49.60;;;;;;4789829;29;20064;-77
2021/10/25 13:57:58;;;;;;;8.98;2.53;;;14.70;49.90;;;;;;4761596;30;20044;-78
2021/10/25 14:00:24;;;;;;;10.57;2.28;;;14.60;50.30;;;;;;4785825;29;20095;-78
2021/10/25 14:02:53;;;;;;;8.55;2.80;;;14.60;49.80;;;;;;4761290;30;20032;-78
2021/10/25 14:05:20;;;;;;;10.55;2.95;;;14.60;50.40;;;;;;4760747;30;20036;-78
2021/10/25 14:07:47;;;;;;;8.07;2.40;;;14.60;50.10;;;;;;4774826;30;20028;-78
2021/10/25 14:10:27;;;;;;;12.48;2.55;;;14.60;50.50;;;;;;4761064;30;20084;-78
2021/10/25 14:12:56;;;;;;;6.72;2.60;;;14.60;50.00;;;;;;4761148;30;20028;-79
2021/10/25 14:15:27;;;;;;;5.63;2.28;;;14.60;50.70;;;;;;4776008;30;20032;-79
2021/10/25 14:17:55;;;;;;;5.30;2.70;;;14.60;50.50;;;;;;4761856;30;20032;-79
2021/10/25 14:20:23;;;;;;;9.77;2.97;;;14.50;50.60;;;;;;4789145;29;20091;-79
2021/10/25 14:22:49;;;;;;;18.92;2.90;;;14.50;50.80;;;;;;4775666;30;20032;-78
2021/10/25 14:25:15;;;;;;;10.53;3.03;;;14.40;51.00;;;;;;4762035;30;20092;-78
2021/10/25 14:27:41;;;;;;;7.22;3.03;;;14.30;51.30;;;;;;4761625;30;20316;-79
2021/10/25 14:30:09;;;;;;;10.68;3.22;;;14.30;51.50;;;;;;4772418;30;20091;-78
2021/10/25 14:32:35;;;;;;;8.98;3.05;;;14.20;51.30;;;;;;4759804;30;20028;-79
2021/10/25 14:35:03;;;;;;;10.48;2.70;;;14.10;51.40;;;;;;4775851;30;20086;-79
2021/10/25 14:37:32;;;;;;;9.65;3.13;;;14.10;51.70;;;;;;4775299;30;20028;-79
2021/10/25 14:40:10;;;;;;;11.88;3.00;;;14.10;51.70;;;;;;4758787;30;20331;-79
2021/10/25 14:42:37;;;;;;;11.70;2.90;;;14.10;51.80;;;;;;4761896;30;20032;-79
2021/10/25 14:45:20;;;;;;;7.22;2.75;;;14.00;52.00;;;;;;4760387;30;20030;-79
2021/10/25 14:53:28;;;;;;;7.07;2.95;;;13.90;52.60;;;;;;4808627;29;20038;-81
2021/10/25 14:58:20;;;;;;;7.03;2.58;;;13.80;52.80;;;;;;4808381;29;20047;-78
2021/10/25 15:00:46;;;;;;;8.25;2.88;;;13.70;53.40;;;;;;4781508;29;20507;-78
2021/10/25 15:03:12;;;;;;;9.98;2.72;;;13.70;53.50;;;;;;4794414;29;20035;-79
2021/10/25 15:05:38;;;;;;;7.15;2.90;;;13.60;53.70;;;;;;4792214;29;20041;-79
2021/10/25 15:08:04;;;;;;;7.18;2.83;;;13.60;53.60;;;;;;4791417;29;20266;-78
2021/10/25 15:10:30;;;;;;;9.88;3.45;;;13.50;53.90;;;;;;4776667;29;20023;-80
2021/10/25 15:12:56;;;;;;;7.68;2.47;;;13.50;54.30;;;;;;4802791;29;20315;-79
2021/10/25 15:15:21;;;;;;;8.57;2.97;;;13.50;54.20;;;;;;4789404;29;20051;-79
2021/10/25 15:17:48;;;;;;;9.55;3.92;;;13.40;54.50;;;;;;4788355;29;20041;-79
2021/10/25 15:20:16;;;;;;;9.98;3.08;;;13.30;54.70;;;;;;4786996;29;20044;-79
2021/10/25 15:22:42;;;;;;;8.80;2.60;;;13.30;55.00;;;;;;4791556;29;20102;-79
2021/10/25 15:25:10;;;;;;;12.82;3.42;;;13.20;55.00;;;;;;4806346;29;20227;-79
2021/10/25 15:27:39;;;;;;;12.93;3.30;;;13.20;55.20;;;;;;4778729;29;20044;-79
2021/10/25 15:30:07;;;;;;;11.30;3.25;;;13.20;55.30;;;;;;4781445;29;20104;-79
2021/10/25 15:32:34;;;;;;;17.23;5.00;;;13.10;55.50;;;;;;4757475;30;20107;-79
2021/10/25 15:35:00;;;;;;;14.32;6.20;;;13.10;55.80;;;;;;4759087;30;20079;-79
2021/10/25 15:37:29;;;;;;;10.02;4.03;;;13.00;55.60;;;;;;4753346;30;20024;-78
2021/10/25 15:39:56;;;;;;;15.30;3.25;;;12.90;55.90;;;;;;4765581;30;20063;-78
2021/10/25 15:42:25;;;;;;;10.15;2.55;;;12.90;56.10;;;;;;4768719;30;20035;-78
2021/10/25 15:44:52;;;;;;;8.10;3.28;;;12.90;56.30;;;;;;4786091;29;20032;-78
2021/10/25 15:47:21;;;;;;;5.53;2.50;;;12.80;56.40;;;;;;4772672;29;20068;-79
2021/10/25 15:49:49;;;;;;;21.90;5.68;;;12.80;56.60;;;;;;4784061;30;20063;-78
2021/10/25 15:52:17;;;;;;;11.95;3.35;;;12.70;56.50;;;;;;4790656;29;20056;-79
2021/10/25 15:54:44;;;;;;;13.20;3.65;;;12.70;56.60;;;;;;4772465;29;20348;-79
2021/10/25 15:57:13;;;;;;;16.50;2.80;;;12.60;56.70;;;;;;4770718;30;20037;-79
2021/10/25 15:59:40;;;;;;;8.85;3.30;;;12.60;56.80;;;;;;4784396;29;20028;-79
2021/10/25 16:02:07;;;;;;;12.98;3.35;;;12.60;56.80;;;;;;4760995;30;20059;-79
2021/10/25 16:04:32;;;;;;;10.77;2.80;;;12.60;56.80;;;;;;4764409;30;20032;-78
2021/10/25 16:06:58;;;;;;;5.35;2.72;;;12.60;57.10;;;;;;4768053;30;20263;-78
2021/10/25 16:09:24;;;;;;;7.55;2.50;;;12.60;57.20;;;;;;4795034;29;20040;-78
2021/10/25 16:11:52;;;;;;;10.40;3.13;;;12.50;57.30;;;;;;4759939;30;20066;-78
2021/10/25 16:14:18;;;;;;;10.93;3.80;;;12.50;57.50;;;;;;4775983;30;20058;-78
2021/10/25 16:16:44;;;;;;;6.53;3.38;;;12.40;57.60;;;;;;4792968;29;20032;-78
2021/10/25 16:19:10;;;;;;;9.13;3.20;;;12.40;57.90;;;;;;4800826;29;20094;-78
2021/10/25 16:21:37;;;;;;;7.88;3.83;;;12.30;58.10;;;;;;4765501;30;20020;-78
2021/10/25 16:24:03;;;;;;;11.07;2.80;;;12.30;58.10;;;;;;4765220;30;20089;-78
2021/10/25 16:26:29;;;;;;;9.68;3.28;;;12.30;58.30;;;;;;4785783;29;20032;-78
2021/10/25 16:28:55;;;;;;;11.75;2.90;;;12.20;58.40;;;;;;4760717;30;20060;-78
2021/10/25 16:31:20;;;;;;;5.45;2.50;;;12.10;58.50;;;;;;4761377;30;20278;-79
2021/10/25 16:33:47;;;;;;;10.07;3.33;;;12.10;58.60;;;;;;4762749;30;20032;-79
2021/10/25 16:36:13;;;;;;;8.80;3.28;;;12.10;58.80;;;;;;4763045;30;20032;-79
2021/10/25 16:38:39;;;;;;;12.60;2.78;;;12.10;59.00;;;;;;4778130;30;20063;-79
2021/10/25 16:41:06;;;;;;;8.57;3.20;;;12.00;58.80;;;;;;4764557;30;20032;-79
2021/10/25 16:43:32;;;;;;;10.10;3.35;;;12.00;58.90;;;;;;4768206;30;20028;-79
2021/10/25 16:46:00;;;;;;;10.57;3.05;;;12.00;59.00;;;;;;4765583;30;20476;-79
2021/10/25 16:48:29;;;;;;;11.45;3.63;;;12.00;59.00;;;;;;4765062;30;20340;-79
2021/10/25 16:51:09;;;;;;;7.07;3.10;;;12.10;59.10;;;;;;4762602;30;20036;-79
2021/10/25 17:09:42;;;;;;;10.85;3.97;;;11.90;59.60;;;;;;4792462;29;20051;-81
2021/10/25 17:12:10;;;;;;;14.00;3.40;;;12.00;59.70;;;;;;4763742;30;20071;-80
2021/10/25 17:14:37;;;;;;;16.27;3.67;;;11.90;59.70;;;;;;4778590;30;20277;-79
2021/10/25 17:17:03;;;;;;;8.43;3.63;;;11.90;59.80;;;;;;4750543;30;20228;-80
2021/10/25 17:19:30;;;;;;;10.17;3.57;;;11.90;59.80;;;;;;4778303;30;20040;-79
2021/10/25 17:21:56;;;;;;;8.13;3.40;;;11.90;59.80;;;;;;4778930;30;20115;-79
2021/10/25 17:24:23;;;;;;;6.80;3.28;;;12.00;59.70;;;;;;4762744;30;20035;-79
2021/10/25 17:26:49;;;;;;;7.83;2.70;;;12.00;59.70;;;;;;4764896;30;20031;-79
2021/10/25 17:29:14;;;;;;;8.15;3.47;;;12.10;59.70;;;;;;4748726;30;20360;-79
2021/10/25 17:31:41;;;;;;;12.13;2.85;;;12.00;59.50;;;;;;4777713;30;20047;-79
2021/10/25 17:34:08;;;;;;;15.20;3.28;;;12.00;59.50;;;;;;4792435;30;20042;-79
2021/10/25 17:36:36;;;;;;;6.30;2.92;;;12.00;59.70;;;;;;4777849;30;20070;-79
2021/10/25 17:39:02;;;;;;;10.40;4.60;;;12.00;59.70;;;;;;4762864;30;20039;-79
2021/10/25 17:41:32;;;;;;;27.30;14.10;;;12.00;59.80;;;;;;4771609;30;20036;-79
2021/10/25 17:43:58;;;;;;;27.98;16.65;;;12.00;59.70;;;;;;4761667;30;20028;-79
2021/10/25 17:46:24;;;;;;;30.17;15.63;;;12.00;59.60;;;;;;4761467;30;20066;-79
2021/10/25 17:48:50;;;;;;;15.90;7.65;;;11.90;59.90;;;;;;4772875;30;20363;-79